sensor_id;sensor_type;location;lat;lon;timestamp;temperature;humidity
81140;SHT31;70624;51.978;5.656;2024-03-23T06:43:40;9.5;67.4
81140;SHT31;70624;51.978;5.656;2024-03-23T06:46:09;9.5;69.8
81140;SHT31;70624;51.978;5.656;2024-03-23T06:48:37;9.5;68.3
81140;SHT31;70624;51.978;5.656;2024-03-23T06:51:07;9.6;68.0
81140;SHT31;70624;51.978;5.656;2024-03-23T06:53:36;9.6;68.6
81140;SHT31;70624;51.978;5.656;2024-03-23T06:56:04;9.6;68.0
81140;SHT31;70624;51.978;5.656;2024-03-23T06:58:33;9.6;67.6
81140;SHT31;70624;51.978;5.656;2024-03-23T07:01:02;9.6;67.5
81140;SHT31;70624;51.978;5.656;2024-03-23T07:03:30;9.6;68.1
81140;SHT31;70624;51.978;5.656;2024-03-23T07:05:59;9.6;68.2
81140;SHT31;70624;51.978;5.656;2024-03-23T07:08:28;9.6;68.1
81140;SHT31;70624;51.978;5.656;2024-03-23T07:10:56;9.6;68.7
81140;SHT31;70624;51.978;5.656;2024-03-23T07:13:24;9.6;69.1
81140;SHT31;70624;51.978;5.656;2024-03-23T07:15:53;9.6;69.5
81140;SHT31;70624;51.978;5.656;2024-03-23T07:18:22;9.6;70.0
81140;SHT31;70624;51.978;5.656;2024-03-23T07:20:54;9.7;69.6
81140;SHT31;70624;51.978;5.656;2024-03-23T07:23:24;9.7;69.9
81140;SHT31;70624;51.978;5.656;2024-03-23T07:26:00;9.8;70.2
81140;SHT31;70624;51.978;5.656;2024-03-23T07:28:28;9.9;69.2
81140;SHT31;70624;51.978;5.656;2024-03-23T07:31:06;9.9;68.6
81140;SHT31;70624;51.978;5.656;2024-03-23T07:33:36;10.0;68.6
81140;SHT31;70624;51.978;5.656;2024-03-23T07:36:05;10.1;68.7
81140;SHT31;70624;51.978;5.656;2024-03-23T07:38:34;10.1;69.0
81140;SHT31;70624;51.978;5.656;2024-03-23T07:41:08;10.2;68.5
81140;SHT31;70624;51.978;5.656;2024-03-23T07:43:37;10.3;67.7
81140;SHT31;70624;51.978;5.656;2024-03-23T07:46:06;10.3;67.2
81140;SHT31;70624;51.978;5.656;2024-03-23T07:48:37;10.4;66.3
81140;SHT31;70624;51.978;5.656;2024-03-23T07:51:07;10.4;66.8
81140;SHT31;70624;51.978;5.656;2024-03-23T07:53:36;10.5;66.2
81140;SHT31;70624;51.978;5.656;2024-03-23T07:56:07;10.6;66.1
81140;SHT31;70624;51.978;5.656;2024-03-23T07:58:37;10.6;66.1
81140;SHT31;70624;51.978;5.656;2024-03-23T08:01:06;10.7;65.5
81140;SHT31;70624;51.978;5.656;2024-03-23T08:03:37;10.8;65.6
81140;SHT31;70624;51.978;5.656;2024-03-23T08:06:10;10.9;64.8
81140;SHT31;70624;51.978;5.656;2024-03-23T08:08:40;11.0;64.7
81140;SHT31;70624;51.978;5.656;2024-03-23T08:11:09;11.0;64.6
81140;SHT31;70624;51.978;5.656;2024-03-23T08:13:40;11.1;63.8
81140;SHT31;70624;51.978;5.656;2024-03-23T08:16:08;11.2;64.6
81140;SHT31;70624;51.978;5.656;2024-03-23T08:18:37;11.3;63.8
81140;SHT31;70624;51.978;5.656;2024-03-23T08:21:06;11.3;63.5
81140;SHT31;70624;51.978;5.656;2024-03-23T08:23:35;11.4;61.9
81140;SHT31;70624;51.978;5.656;2024-03-23T08:26:06;11.5;67.6
81140;SHT31;70624;51.978;5.656;2024-03-23T08:28:35;11.6;66.8
81140;SHT31;70624;51.978;5.656;2024-03-23T08:31:06;11.8;65.0
81140;SHT31;70624;51.978;5.656;2024-03-23T08:33:34;12.0;65.0
81140;SHT31;70624;51.978;5.656;2024-03-23T08:36:04;12.2;63.2
81140;SHT31;70624;51.978;5.656;2024-03-23T08:38:33;12.5;61.0
81140;SHT31;70624;51.978;5.656;2024-03-23T08:41:03;12.7;59.1
81140;SHT31;70624;51.978;5.656;2024-03-23T08:43:34;12.9;59.9
81140;SHT31;70624;51.978;5.656;2024-03-23T08:46:07;13.1;57.7
81140;SHT31;70624;51.978;5.656;2024-03-23T08:48:37;13.2;56.7
81140;SHT31;70624;51.978;5.656;2024-03-23T08:51:07;13.3;57.2
81140;SHT31;70624;51.978;5.656;2024-03-23T08:54:48;13.5;54.3
81140;SHT31;70624;51.978;5.656;2024-03-23T08:57:16;13.2;56.2
81140;SHT31;70624;51.978;5.656;2024-03-23T08:59:46;13.1;56.5
81140;SHT31;70624;51.978;5.656;2024-03-23T09:02:14;13.0;56.1
81140;SHT31;70624;51.978;5.656;2024-03-23T09:04:44;12.8;57.0
81140;SHT31;70624;51.978;5.656;2024-03-23T09:07:12;12.6;56.0
81140;SHT31;70624;51.978;5.656;2024-03-23T09:09:41;12.4;56.9
81140;SHT31;70624;51.978;5.656;2024-03-23T09:12:09;12.1;58.0
81140;SHT31;70624;51.978;5.656;2024-03-23T09:14:37;12.0;59.8
81140;SHT31;70624;51.978;5.656;2024-03-23T09:17:06;11.9;60.8
81140;SHT31;70624;51.978;5.656;2024-03-23T09:19:34;11.8;62.7
81140;SHT31;70624;51.978;5.656;2024-03-23T09:22:03;11.8;62.1
81140;SHT31;70624;51.978;5.656;2024-03-23T09:24:31;11.8;62.7
81140;SHT31;70624;51.978;5.656;2024-03-23T09:27:00;11.8;61.7
81140;SHT31;70624;51.978;5.656;2024-03-23T09:29:31;11.8;61.0
81140;SHT31;70624;51.978;5.656;2024-03-23T09:31:59;11.8;60.9
81140;SHT31;70624;51.978;5.656;2024-03-23T09:34:28;11.9;61.0
81140;SHT31;70624;51.978;5.656;2024-03-23T09:36:56;11.9;59.3
81140;SHT31;70624;51.978;5.656;2024-03-23T09:39:25;12.0;58.2
81140;SHT31;70624;51.978;5.656;2024-03-23T09:41:58;12.1;57.8
81140;SHT31;70624;51.978;5.656;2024-03-23T09:44:26;12.1;59.0
81140;SHT31;70624;51.978;5.656;2024-03-23T09:46:55;12.2;58.3
81140;SHT31;70624;51.978;5.656;2024-03-23T09:49:24;12.2;56.7
81140;SHT31;70624;51.978;5.656;2024-03-23T09:51:53;12.3;56.4
81140;SHT31;70624;51.978;5.656;2024-03-23T09:54:21;12.3;56.4
81140;SHT31;70624;51.978;5.656;2024-03-23T09:56:50;12.4;55.5
81140;SHT31;70624;51.978;5.656;2024-03-23T09:59:18;12.4;55.1
81140;SHT31;70624;51.978;5.656;2024-03-23T10:01:47;12.5;56.4
81140;SHT31;70624;51.978;5.656;2024-03-23T10:06:03;13.5;52.6
81140;SHT31;70624;51.978;5.656;2024-03-23T10:08:31;13.6;53.2
81140;SHT31;70624;51.978;5.656;2024-03-23T10:11:14;13.7;51.5
81140;SHT31;70624;51.978;5.656;2024-03-23T10:13:44;13.8;52.1
81140;SHT31;70624;51.978;5.656;2024-03-23T10:16:23;13.8;51.7
81140;SHT31;70624;51.978;5.656;2024-03-23T10:18:53;13.7;51.2
81140;SHT31;70624;51.978;5.656;2024-03-23T10:21:21;13.4;52.0
81140;SHT31;70624;51.978;5.656;2024-03-23T10:23:49;13.1;54.5
81140;SHT31;70624;51.978;5.656;2024-03-23T10:26:20;12.9;56.8
81140;SHT31;70624;51.978;5.656;2024-03-23T10:28:53;12.7;58.0
81140;SHT31;70624;51.978;5.656;2024-03-23T10:31:23;12.7;59.9
81140;SHT31;70624;51.978;5.656;2024-03-23T10:33:52;12.6;58.2
81140;SHT31;70624;51.978;5.656;2024-03-23T10:36:22;12.6;58.4
81140;SHT31;70624;51.978;5.656;2024-03-23T10:38:53;12.6;59.4
81140;SHT31;70624;51.978;5.656;2024-03-23T10:41:23;12.6;58.9
81140;SHT31;70624;51.978;5.656;2024-03-23T10:43:55;12.6;57.2
81140;SHT31;70624;51.978;5.656;2024-03-23T10:46:26;12.7;55.2
81140;SHT31;70624;51.978;5.656;2024-03-23T10:48:55;12.7;55.9
81140;SHT31;70624;51.978;5.656;2024-03-23T10:51:23;12.7;57.3
81140;SHT31;70624;51.978;5.656;2024-03-23T10:53:53;12.8;58.1
81140;SHT31;70624;51.978;5.656;2024-03-23T10:56:25;12.9;56.4
81140;SHT31;70624;51.978;5.656;2024-03-23T10:58:55;13.0;54.2
81140;SHT31;70624;51.978;5.656;2024-03-23T11:01:25;13.1;54.5
81140;SHT31;70624;51.978;5.656;2024-03-23T11:03:54;13.2;55.9
81140;SHT31;70624;51.978;5.656;2024-03-23T11:06:36;13.2;54.4
81140;SHT31;70624;51.978;5.656;2024-03-23T11:09:37;13.3;54.4
81140;SHT31;70624;51.978;5.656;2024-03-23T11:12:24;13.4;54.1
81140;SHT31;70624;51.978;5.656;2024-03-23T11:14:55;13.5;53.9
81140;SHT31;70624;51.978;5.656;2024-03-23T11:17:26;13.6;52.4
81140;SHT31;70624;51.978;5.656;2024-03-23T11:19:56;13.6;49.8
81140;SHT31;70624;51.978;5.656;2024-03-23T11:22:42;13.7;53.0
81140;SHT31;70624;51.978;5.656;2024-03-23T11:25:20;13.7;50.6
81140;SHT31;70624;51.978;5.656;2024-03-23T11:27:51;13.7;50.2
81140;SHT31;70624;51.978;5.656;2024-03-23T11:30:21;13.7;52.0
81140;SHT31;70624;51.978;5.656;2024-03-23T11:32:51;13.7;52.0
81140;SHT31;70624;51.978;5.656;2024-03-23T11:35:27;13.7;52.4
81140;SHT31;70624;51.978;5.656;2024-03-23T11:38:08;13.7;51.1
81140;SHT31;70624;51.978;5.656;2024-03-23T11:40:38;13.7;50.8
81140;SHT31;70624;51.978;5.656;2024-03-23T11:43:08;13.7;51.4
81140;SHT31;70624;51.978;5.656;2024-03-23T11:45:39;13.8;51.3
81140;SHT31;70624;51.978;5.656;2024-03-23T11:48:09;13.8;49.4
81140;SHT31;70624;51.978;5.656;2024-03-23T11:50:40;13.7;47.9
81140;SHT31;70624;51.978;5.656;2024-03-23T11:53:13;13.7;48.6
81140;SHT31;70624;51.978;5.656;2024-03-23T11:55:49;13.7;51.9
81140;SHT31;70624;51.978;5.656;2024-03-23T11:58:19;13.6;49.6
81140;SHT31;70624;51.978;5.656;2024-03-23T12:00:56;13.6;49.7
81140;SHT31;70624;51.978;5.656;2024-03-23T12:03:26;13.6;48.5
81140;SHT31;70624;51.978;5.656;2024-03-23T12:05:56;13.5;49.6
81140;SHT31;70624;51.978;5.656;2024-03-23T12:08:32;13.4;48.9
81140;SHT31;70624;51.978;5.656;2024-03-23T12:11:10;13.3;50.3
81140;SHT31;70624;51.978;5.656;2024-03-23T12:13:42;13.3;49.2
81140;SHT31;70624;51.978;5.656;2024-03-23T12:16:14;13.2;50.3
81140;SHT31;70624;51.978;5.656;2024-03-23T12:18:44;13.2;50.0
81140;SHT31;70624;51.978;5.656;2024-03-23T12:21:12;13.2;51.3
81140;SHT31;70624;51.978;5.656;2024-03-23T12:23:41;13.2;50.2
81140;SHT31;70624;51.978;5.656;2024-03-23T12:26:11;13.2;49.7
81140;SHT31;70624;51.978;5.656;2024-03-23T12:28:40;13.2;50.2
81140;SHT31;70624;51.978;5.656;2024-03-23T12:31:08;13.3;49.8
81140;SHT31;70624;51.978;5.656;2024-03-23T12:33:37;13.4;47.3
81140;SHT31;70624;51.978;5.656;2024-03-23T12:36:06;13.4;48.2
81140;SHT31;70624;51.978;5.656;2024-03-23T12:38:34;13.4;50.0
81140;SHT31;70624;51.978;5.656;2024-03-23T12:41:02;13.3;51.1
81140;SHT31;70624;51.978;5.656;2024-03-23T12:43:31;13.3;52.5
81140;SHT31;70624;51.978;5.656;2024-03-23T12:45:59;13.2;53.7
81140;SHT31;70624;51.978;5.656;2024-03-23T12:48:28;13.2;58.5
81140;SHT31;70624;51.978;5.656;2024-03-23T12:50:59;13.1;58.5
81140;SHT31;70624;51.978;5.656;2024-03-23T12:53:27;13.2;57.4
81140;SHT31;70624;51.978;5.656;2024-03-23T12:55:56;13.3;54.0
81140;SHT31;70624;51.978;5.656;2024-03-23T12:58:25;13.4;54.8
81140;SHT31;70624;51.978;5.656;2024-03-23T13:00:53;13.6;52.5
81140;SHT31;70624;51.978;5.656;2024-03-23T13:03:21;13.7;52.9
81140;SHT31;70624;51.978;5.656;2024-03-23T13:05:53;13.8;53.0
81140;SHT31;70624;51.978;5.656;2024-03-23T13:08:21;13.9;50.7
81140;SHT31;70624;51.978;5.656;2024-03-23T13:10:53;14.1;50.8
81140;SHT31;70624;51.978;5.656;2024-03-23T13:13:21;14.2;50.4
81140;SHT31;70624;51.978;5.656;2024-03-23T13:15:51;14.2;50.3
81140;SHT31;70624;51.978;5.656;2024-03-23T13:18:20;14.3;48.4
81140;SHT31;70624;51.978;5.656;2024-03-23T13:20:48;14.4;49.1
81140;SHT31;70624;51.978;5.656;2024-03-23T13:23:16;14.4;49.0
81140;SHT31;70624;51.978;5.656;2024-03-23T13:25:51;14.5;48.3
81140;SHT31;70624;51.978;5.656;2024-03-23T13:28:20;14.6;48.5
81140;SHT31;70624;51.978;5.656;2024-03-23T13:30:53;14.6;45.5
81140;SHT31;70624;51.978;5.656;2024-03-23T13:33:21;14.6;45.7
81140;SHT31;70624;51.978;5.656;2024-03-23T13:35:51;14.5;45.5
81140;SHT31;70624;51.978;5.656;2024-03-23T13:38:19;14.4;45.5
81140;SHT31;70624;51.978;5.656;2024-03-23T13:40:53;14.3;45.4
81140;SHT31;70624;51.978;5.656;2024-03-23T13:43:23;14.1;45.8
81140;SHT31;70624;51.978;5.656;2024-03-23T13:45:54;13.9;45.1
81140;SHT31;70624;51.978;5.656;2024-03-23T13:48:25;13.8;45.6
81140;SHT31;70624;51.978;5.656;2024-03-23T13:51:00;13.7;46.0
81140;SHT31;70624;51.978;5.656;2024-03-23T13:53:29;13.6;46.8
81140;SHT31;70624;51.978;5.656;2024-03-23T13:55:58;13.5;46.2
81140;SHT31;70624;51.978;5.656;2024-03-23T13:58:27;13.3;50.8
81140;SHT31;70624;51.978;5.656;2024-03-23T14:00:56;13.2;53.5
81140;SHT31;70624;51.978;5.656;2024-03-23T14:03:25;13.1;53.6
81140;SHT31;70624;51.978;5.656;2024-03-23T14:05:57;13.1;52.4
81140;SHT31;70624;51.978;5.656;2024-03-23T14:08:28;13.0;51.5
81140;SHT31;70624;51.978;5.656;2024-03-23T14:10:59;12.9;49.7
81140;SHT31;70624;51.978;5.656;2024-03-23T14:13:28;12.9;51.0
81140;SHT31;70624;51.978;5.656;2024-03-23T14:15:56;12.8;50.2
81140;SHT31;70624;51.978;5.656;2024-03-23T14:18:27;12.8;50.8
81140;SHT31;70624;51.978;5.656;2024-03-23T14:20:59;12.7;50.0
81140;SHT31;70624;51.978;5.656;2024-03-23T14:23:29;12.6;52.0
81140;SHT31;70624;51.978;5.656;2024-03-23T14:25:59;12.4;53.9
81140;SHT31;70624;51.978;5.656;2024-03-23T14:28:28;12.2;53.8
81140;SHT31;70624;51.978;5.656;2024-03-23T14:30:56;12.1;55.7
81140;SHT31;70624;51.978;5.656;2024-03-23T14:33:25;11.9;56.4
81140;SHT31;70624;51.978;5.656;2024-03-23T14:35:54;11.8;55.5
81140;SHT31;70624;51.978;5.656;2024-03-23T14:38:24;11.8;56.0
81140;SHT31;70624;51.978;5.656;2024-03-23T14:40:52;11.7;55.4
81140;SHT31;70624;51.978;5.656;2024-03-23T14:43:20;11.6;56.8
81140;SHT31;70624;51.978;5.656;2024-03-23T14:46:10;11.6;56.5
81140;SHT31;70624;51.978;5.656;2024-03-23T14:48:40;11.5;58.1
81140;SHT31;70624;51.978;5.656;2024-03-23T14:51:11;11.5;55.9
81140;SHT31;70624;51.978;5.656;2024-03-23T14:53:41;11.5;55.2
81140;SHT31;70624;51.978;5.656;2024-03-23T14:56:09;11.5;55.4
81140;SHT31;70624;51.978;5.656;2024-03-23T14:58:43;11.4;55.8
81140;SHT31;70624;51.978;5.656;2024-03-23T15:01:13;11.4;57.1
81140;SHT31;70624;51.978;5.656;2024-03-23T15:03:42;11.4;57.0
81140;SHT31;70624;51.978;5.656;2024-03-23T15:06:11;11.4;57.9
81140;SHT31;70624;51.978;5.656;2024-03-23T15:08:39;11.4;57.4
81140;SHT31;70624;51.978;5.656;2024-03-23T15:11:08;11.4;56.4
81140;SHT31;70624;51.978;5.656;2024-03-23T15:13:38;11.4;57.6
81140;SHT31;70624;51.978;5.656;2024-03-23T15:16:08;11.4;60.8
81140;SHT31;70624;51.978;5.656;2024-03-23T15:18:37;11.5;61.5
81140;SHT31;70624;51.978;5.656;2024-03-23T15:21:06;11.6;58.0
81140;SHT31;70624;51.978;5.656;2024-03-23T15:23:37;11.8;58.3
81140;SHT31;70624;51.978;5.656;2024-03-23T15:26:05;11.9;56.1
81140;SHT31;70624;51.978;5.656;2024-03-23T15:28:34;12.0;55.1
81140;SHT31;70624;51.978;5.656;2024-03-23T15:31:16;12.1;53.9
81140;SHT31;70624;51.978;5.656;2024-03-23T15:33:45;12.1;52.6
81140;SHT31;70624;51.978;5.656;2024-03-23T15:36:13;12.1;54.5
81140;SHT31;70624;51.978;5.656;2024-03-23T15:38:42;12.2;52.5
81140;SHT31;70624;51.978;5.656;2024-03-23T15:41:11;12.2;52.7
81140;SHT31;70624;51.978;5.656;2024-03-23T15:43:39;12.2;53.0
81140;SHT31;70624;51.978;5.656;2024-03-23T15:46:08;12.3;53.2
81140;SHT31;70624;51.978;5.656;2024-03-23T15:48:38;12.3;53.5
81140;SHT31;70624;51.978;5.656;2024-03-23T15:51:06;12.3;53.3
81140;SHT31;70624;51.978;5.656;2024-03-23T15:53:35;12.4;53.0
81140;SHT31;70624;51.978;5.656;2024-03-23T15:56:06;12.4;52.8
81140;SHT31;70624;51.978;5.656;2024-03-23T15:58:35;12.4;51.3
81140;SHT31;70624;51.978;5.656;2024-03-23T16:01:04;12.4;51.9
81140;SHT31;70624;51.978;5.656;2024-03-23T16:03:36;12.4;51.7
81140;SHT31;70624;51.978;5.656;2024-03-23T16:06:06;12.3;52.2
81140;SHT31;70624;51.978;5.656;2024-03-23T16:08:35;12.2;52.2
81140;SHT31;70624;51.978;5.656;2024-03-23T16:11:05;12.2;51.9
81140;SHT31;70624;51.978;5.656;2024-03-23T16:13:35;12.1;52.0
81140;SHT31;70624;51.978;5.656;2024-03-23T16:16:04;12.0;52.7
81140;SHT31;70624;51.978;5.656;2024-03-23T16:18:35;11.9;52.8
81140;SHT31;70624;51.978;5.656;2024-03-23T16:21:05;11.8;53.4
81140;SHT31;70624;51.978;5.656;2024-03-23T16:23:35;11.7;53.7
81140;SHT31;70624;51.978;5.656;2024-03-23T16:26:05;11.6;54.0
81140;SHT31;70624;51.978;5.656;2024-03-23T16:28:35;11.5;54.4
81140;SHT31;70624;51.978;5.656;2024-03-23T16:31:05;11.4;55.2
81140;SHT31;70624;51.978;5.656;2024-03-23T16:33:35;11.4;54.9
81140;SHT31;70624;51.978;5.656;2024-03-23T16:36:05;11.3;55.1
81140;SHT31;70624;51.978;5.656;2024-03-23T16:38:34;11.2;55.8
81140;SHT31;70624;51.978;5.656;2024-03-23T16:41:04;11.1;55.6
81140;SHT31;70624;51.978;5.656;2024-03-23T16:43:34;11.1;56.7
81140;SHT31;70624;51.978;5.656;2024-03-23T16:46:05;11.0;56.4
81140;SHT31;70624;51.978;5.656;2024-03-23T16:48:38;10.9;56.0
81140;SHT31;70624;51.978;5.656;2024-03-23T16:51:08;10.9;55.7
81140;SHT31;70624;51.978;5.656;2024-03-23T16:53:38;10.8;56.2
81140;SHT31;70624;51.978;5.656;2024-03-23T16:56:08;10.7;55.8
81140;SHT31;70624;51.978;5.656;2024-03-23T16:58:38;10.7;55.4
81140;SHT31;70624;51.978;5.656;2024-03-23T17:01:08;10.6;56.0
81140;SHT31;70624;51.978;5.656;2024-03-23T17:03:42;10.6;56.9
81140;SHT31;70624;51.978;5.656;2024-03-23T17:06:10;10.6;57.2
81140;SHT31;70624;51.978;5.656;2024-03-23T17:08:41;10.6;57.0
81140;SHT31;70624;51.978;5.656;2024-03-23T17:11:10;10.6;56.9
81140;SHT31;70624;51.978;5.656;2024-03-23T17:13:38;10.6;57.2
81140;SHT31;70624;51.978;5.656;2024-03-23T17:16:07;10.6;57.0
81140;SHT31;70624;51.978;5.656;2024-03-23T17:18:37;10.6;57.0
81140;SHT31;70624;51.978;5.656;2024-03-23T17:21:05;10.6;57.8
81140;SHT31;70624;51.978;5.656;2024-03-23T17:23:35;10.6;56.7
81140;SHT31;70624;51.978;5.656;2024-03-23T17:26:03;10.6;56.8
81140;SHT31;70624;51.978;5.656;2024-03-23T17:28:32;10.6;56.9
81140;SHT31;70624;51.978;5.656;2024-03-23T17:31:00;10.6;56.5
81140;SHT31;70624;51.978;5.656;2024-03-23T17:33:28;10.6;55.8
81140;SHT31;70624;51.978;5.656;2024-03-23T17:35:57;10.6;54.5
81140;SHT31;70624;51.978;5.656;2024-03-23T17:38:25;10.6;55.0
81140;SHT31;70624;51.978;5.656;2024-03-23T17:40:57;10.6;53.8
81140;SHT31;70624;51.978;5.656;2024-03-23T17:43:26;10.5;54.6
81140;SHT31;70624;51.978;5.656;2024-03-23T17:45:54;10.5;55.1
81140;SHT31;70624;51.978;5.656;2024-03-23T17:48:22;10.4;54.6
81140;SHT31;70624;51.978;5.656;2024-03-23T17:51:04;10.4;56.6
81140;SHT31;70624;51.978;5.656;2024-03-23T17:53:39;10.3;56.7
81140;SHT31;70624;51.978;5.656;2024-03-23T17:56:08;10.2;57.3
81140;SHT31;70624;51.978;5.656;2024-03-23T17:58:36;10.2;57.4
81140;SHT31;70624;51.978;5.656;2024-03-23T18:01:08;10.2;57.9
81140;SHT31;70624;51.978;5.656;2024-03-23T18:03:38;10.1;58.5
81140;SHT31;70624;51.978;5.656;2024-03-23T18:06:07;10.1;58.3
81140;SHT31;70624;51.978;5.656;2024-03-23T18:08:36;10.1;58.4
81140;SHT31;70624;51.978;5.656;2024-03-23T18:11:08;10.0;58.2
81140;SHT31;70624;51.978;5.656;2024-03-23T18:13:37;10.0;59.1
81140;SHT31;70624;51.978;5.656;2024-03-23T18:16:06;9.9;58.7
81140;SHT31;70624;51.978;5.656;2024-03-23T18:18:34;9.9;58.5
81140;SHT31;70624;51.978;5.656;2024-03-23T18:21:03;9.9;58.3
81140;SHT31;70624;51.978;5.656;2024-03-23T18:23:32;9.8;58.7
81140;SHT31;70624;51.978;5.656;2024-03-23T18:26:00;9.8;60.2
81140;SHT31;70624;51.978;5.656;2024-03-23T18:28:30;9.7;61.3
81140;SHT31;70624;51.978;5.656;2024-03-23T18:31:00;9.7;62.3
81140;SHT31;70624;51.978;5.656;2024-03-23T18:33:34;9.7;62.8
81140;SHT31;70624;51.978;5.656;2024-03-23T18:36:03;9.6;63.5
81140;SHT31;70624;51.978;5.656;2024-03-23T18:38:32;9.5;62.8
81140;SHT31;70624;51.978;5.656;2024-03-23T18:41:01;9.4;63.2
81140;SHT31;70624;51.978;5.656;2024-03-23T18:43:29;9.3;63.2
81140;SHT31;70624;51.978;5.656;2024-03-23T18:45:58;9.3;63.4
81140;SHT31;70624;51.978;5.656;2024-03-23T18:48:28;9.2;64.4
81140;SHT31;70624;51.978;5.656;2024-03-23T18:51:03;9.2;64.9
81140;SHT31;70624;51.978;5.656;2024-03-23T18:53:33;9.2;65.3
81140;SHT31;70624;51.978;5.656;2024-03-23T18:56:01;9.1;66.1
81140;SHT31;70624;51.978;5.656;2024-03-23T18:58:30;9.2;65.8
81140;SHT31;70624;51.978;5.656;2024-03-23T19:01:01;9.2;65.0
81140;SHT31;70624;51.978;5.656;2024-03-23T19:03:30;9.1;65.1
81140;SHT31;70624;51.978;5.656;2024-03-23T19:06:01;9.1;64.9
81140;SHT31;70624;51.978;5.656;2024-03-23T19:08:30;9.1;64.9
81140;SHT31;70624;51.978;5.656;2024-03-23T19:11:01;9.1;65.5
81140;SHT31;70624;51.978;5.656;2024-03-23T19:13:30;9.1;64.8
81140;SHT31;70624;51.978;5.656;2024-03-23T19:16:02;9.0;64.8
81140;SHT31;70624;51.978;5.656;2024-03-23T19:18:31;9.0;65.4
81140;SHT31;70624;51.978;5.656;2024-03-23T19:21:02;9.0;65.6
81140;SHT31;70624;51.978;5.656;2024-03-23T19:23:31;9.0;65.6
81140;SHT31;70624;51.978;5.656;2024-03-23T19:26:01;9.0;65.7
81140;SHT31;70624;51.978;5.656;2024-03-23T19:28:29;8.9;65.9
81140;SHT31;70624;51.978;5.656;2024-03-23T19:31:02;8.9;65.2
81140;SHT31;70624;51.978;5.656;2024-03-23T19:33:33;8.9;65.6
81140;SHT31;70624;51.978;5.656;2024-03-23T19:36:01;8.9;65.9
81140;SHT31;70624;51.978;5.656;2024-03-23T19:38:30;8.9;65.8
81140;SHT31;70624;51.978;5.656;2024-03-23T19:40:58;8.9;65.8
81140;SHT31;70624;51.978;5.656;2024-03-23T19:43:28;8.9;66.1
81140;SHT31;70624;51.978;5.656;2024-03-23T19:45:56;8.8;66.3
81140;SHT31;70624;51.978;5.656;2024-03-23T19:48:29;8.8;66.4
81140;SHT31;70624;51.978;5.656;2024-03-23T19:50:58;8.8;66.3
81140;SHT31;70624;51.978;5.656;2024-03-23T19:53:28;8.7;66.4
81140;SHT31;70624;51.978;5.656;2024-03-23T19:55:57;8.7;66.5
81140;SHT31;70624;51.978;5.656;2024-03-23T19:58:27;8.7;67.0
81140;SHT31;70624;51.978;5.656;2024-03-23T20:00:55;8.6;66.9
81140;SHT31;70624;51.978;5.656;2024-03-23T20:03:23;8.6;67.0
81140;SHT31;70624;51.978;5.656;2024-03-23T20:05:58;8.6;67.1
81140;SHT31;70624;51.978;5.656;2024-03-23T20:08:27;8.6;67.3
81140;SHT31;70624;51.978;5.656;2024-03-23T20:10:56;8.6;67.4
81140;SHT31;70624;51.978;5.656;2024-03-23T20:13:24;8.5;67.5
81140;SHT31;70624;51.978;5.656;2024-03-23T20:15:54;8.5;67.7
81140;SHT31;70624;51.978;5.656;2024-03-23T20:18:23;8.5;68.0
81140;SHT31;70624;51.978;5.656;2024-03-23T20:20:52;8.5;68.0
81140;SHT31;70624;51.978;5.656;2024-03-23T20:23:22;8.4;68.0
81140;SHT31;70624;51.978;5.656;2024-03-23T20:25:55;8.4;68.0
81140;SHT31;70624;51.978;5.656;2024-03-23T20:28:25;8.4;67.9
81140;SHT31;70624;51.978;5.656;2024-03-23T20:30:57;8.4;67.9
81140;SHT31;70624;51.978;5.656;2024-03-23T20:33:26;8.4;67.9
81140;SHT31;70624;51.978;5.656;2024-03-23T20:35:55;8.3;68.2
81140;SHT31;70624;51.978;5.656;2024-03-23T20:38:25;8.3;68.2
81140;SHT31;70624;51.978;5.656;2024-03-23T20:40:55;8.3;68.1
81140;SHT31;70624;51.978;5.656;2024-03-23T20:43:24;8.3;74.0
81140;SHT31;70624;51.978;5.656;2024-03-23T20:45:58;8.3;75.8
81140;SHT31;70624;51.978;5.656;2024-03-23T20:48:27;8.3;71.7
81140;SHT31;70624;51.978;5.656;2024-03-23T20:50:58;8.4;73.4
81140;SHT31;70624;51.978;5.656;2024-03-23T20:53:27;8.4;72.5
81140;SHT31;70624;51.978;5.656;2024-03-23T20:55:58;8.5;69.8
81140;SHT31;70624;51.978;5.656;2024-03-23T20:58:29;8.5;69.8
81140;SHT31;70624;51.978;5.656;2024-03-23T21:01:00;8.6;69.1
81140;SHT31;70624;51.978;5.656;2024-03-23T21:03:29;8.6;68.5
81140;SHT31;70624;51.978;5.656;2024-03-23T21:05:59;8.7;67.4
81140;SHT31;70624;51.978;5.656;2024-03-23T21:08:30;8.7;67.2
81140;SHT31;70624;51.978;5.656;2024-03-23T21:10:58;8.8;68.0
81140;SHT31;70624;51.978;5.656;2024-03-23T21:13:30;8.8;67.1
81140;SHT31;70624;51.978;5.656;2024-03-23T21:15:59;8.9;66.6
81140;SHT31;70624;51.978;5.656;2024-03-23T21:18:29;8.9;64.7
81140;SHT31;70624;51.978;5.656;2024-03-23T21:21:00;8.9;63.9
81140;SHT31;70624;51.978;5.656;2024-03-23T21:23:30;8.9;63.3
81140;SHT31;70624;51.978;5.656;2024-03-23T21:26:01;8.9;63.6
81140;SHT31;70624;51.978;5.656;2024-03-23T21:28:29;8.9;63.9
81140;SHT31;70624;51.978;5.656;2024-03-23T21:30:58;8.8;63.8
81140;SHT31;70624;51.978;5.656;2024-03-23T21:33:26;8.8;64.1
81140;SHT31;70624;51.978;5.656;2024-03-23T21:35:56;8.8;64.5
81140;SHT31;70624;51.978;5.656;2024-03-23T21:38:25;8.7;64.9
81140;SHT31;70624;51.978;5.656;2024-03-23T21:40:55;8.7;65.4
81140;SHT31;70624;51.978;5.656;2024-03-23T21:43:26;8.6;66.0
81140;SHT31;70624;51.978;5.656;2024-03-23T21:46:00;8.6;66.3
81140;SHT31;70624;51.978;5.656;2024-03-23T21:48:30;8.5;66.7
81140;SHT31;70624;51.978;5.656;2024-03-23T21:51:01;8.5;66.9
81140;SHT31;70624;51.978;5.656;2024-03-23T21:53:30;8.4;67.4
81140;SHT31;70624;51.978;5.656;2024-03-23T21:55:58;8.4;67.5
81140;SHT31;70624;51.978;5.656;2024-03-23T21:58:28;8.3;68.0
81140;SHT31;70624;51.978;5.656;2024-03-23T22:00:56;8.3;68.0
81140;SHT31;70624;51.978;5.656;2024-03-23T22:03:25;8.3;68.2
81140;SHT31;70624;51.978;5.656;2024-03-23T22:05:56;8.2;68.5
81140;SHT31;70624;51.978;5.656;2024-03-23T22:08:25;8.2;68.6
81140;SHT31;70624;51.978;5.656;2024-03-23T22:10:57;8.2;68.5
81140;SHT31;70624;51.978;5.656;2024-03-23T22:13:26;8.2;68.7
81140;SHT31;70624;51.978;5.656;2024-03-23T22:15:58;8.1;68.7
81140;SHT31;70624;51.978;5.656;2024-03-23T22:18:27;8.1;68.8
81140;SHT31;70624;51.978;5.656;2024-03-23T22:21:00;8.1;68.7
81140;SHT31;70624;51.978;5.656;2024-03-23T22:23:29;8.0;68.9
81140;SHT31;70624;51.978;5.656;2024-03-23T22:25:58;8.0;68.9
81140;SHT31;70624;51.978;5.656;2024-03-23T22:28:28;8.0;68.8
81140;SHT31;70624;51.978;5.656;2024-03-23T22:30:59;8.0;68.6
81140;SHT31;70624;51.978;5.656;2024-03-23T22:33:28;8.0;68.6
81140;SHT31;70624;51.978;5.656;2024-03-23T22:35:57;8.0;68.3
81140;SHT31;70624;51.978;5.656;2024-03-23T22:38:27;8.0;68.4
81140;SHT31;70624;51.978;5.656;2024-03-23T22:40:57;8.0;68.1
81140;SHT31;70624;51.978;5.656;2024-03-23T22:43:27;8.0;68.4
81140;SHT31;70624;51.978;5.656;2024-03-23T22:45:58;8.0;68.3
81140;SHT31;70624;51.978;5.656;2024-03-23T22:48:28;8.0;68.0
81140;SHT31;70624;51.978;5.656;2024-03-23T22:50:59;8.0;68.0
81140;SHT31;70624;51.978;5.656;2024-03-23T22:53:28;8.0;67.6
81140;SHT31;70624;51.978;5.656;2024-03-23T22:55:57;8.0;67.3
81140;SHT31;70624;51.978;5.656;2024-03-23T22:58:26;8.1;67.5
81140;SHT31;70624;51.978;5.656;2024-03-23T23:00:56;8.1;67.4
81140;SHT31;70624;51.978;5.656;2024-03-23T23:03:24;8.1;67.8
81140;SHT31;70624;51.978;5.656;2024-03-23T23:06:04;8.1;67.6
81140;SHT31;70624;51.978;5.656;2024-03-23T23:08:35;8.1;67.9
81140;SHT31;70624;51.978;5.656;2024-03-23T23:11:05;8.1;67.5